createdAt,value
2019-05-19T00:00:23.669Z,99104.42
2019-05-19T00:02:53.829Z,99108.02
2019-05-19T00:05:23.653Z,99104.16
2019-05-19T00:07:53.412Z,99108.30
2019-05-19T00:10:23.243Z,99106.83
2019-05-19T00:12:52.802Z,99115.45
2019-05-19T00:15:22.356Z,99114.16
2019-05-19T00:17:51.821Z,99114.91
2019-05-19T00:20:21.436Z,99115.06
2019-05-19T00:22:51.005Z,99115.20
2019-05-19T00:25:20.972Z,99112.64
2019-05-19T00:27:50.439Z,99111.11
2019-05-19T00:30:19.913Z,99112.78
2019-05-19T00:32:49.484Z,99108.75
2019-05-19T00:35:19.030Z,99107.76
2019-05-19T00:37:48.522Z,99105.12
2019-05-19T00:40:18.050Z,99099.25
2019-05-19T00:42:48.206Z,99096.92
2019-05-19T00:45:18.962Z,99102.66
2019-05-19T00:47:48.626Z,99103.55
2019-05-19T00:50:18.180Z,99094.20
2019-05-19T00:52:47.669Z,99093.57
2019-05-19T00:55:17.154Z,99101.64
2019-05-19T00:57:47.083Z,99103.34
2019-05-19T01:00:17.011Z,99099.84
2019-05-19T01:02:46.655Z,99097.38
2019-05-19T01:05:17.275Z,99100.92
2019-05-19T01:07:47.450Z,99100.10
2019-05-19T01:10:17.273Z,99107.18
2019-05-19T01:12:47.134Z,99105.52
2019-05-19T01:15:18.568Z,99100.19
2019-05-19T01:17:48.520Z,99095.00
2019-05-19T01:20:18.538Z,99095.02
2019-05-19T01:22:48.877Z,99091.48
2019-05-19T01:25:19.396Z,99093.18
2019-05-19T01:27:49.688Z,99082.73
2019-05-19T01:30:20.022Z,99080.05
2019-05-19T01:32:50.178Z,99081.36
2019-05-19T01:35:20.569Z,99085.62
2019-05-19T01:37:50.533Z,99090.75
2019-05-19T01:40:20.794Z,99085.83
2019-05-19T01:42:51.026Z,99092.41
2019-05-19T01:45:20.831Z,99085.59
2019-05-19T01:47:50.478Z,99090.84
2019-05-19T01:50:20.310Z,99089.89
2019-05-19T01:52:50.355Z,99088.95
2019-05-19T01:55:20.190Z,99079.12
2019-05-19T01:57:49.874Z,99082.52
2019-05-19T02:00:20.423Z,99085.05
2019-05-19T02:02:50.130Z,99082.59
2019-05-19T02:05:19.944Z,99082.44
2019-05-19T02:07:49.608Z,99074.38
2019-05-19T02:10:19.717Z,99075.05
2019-05-19T02:12:49.257Z,99064.98
2019-05-19T02:15:19.071Z,99072.40
2019-05-19T02:17:48.914Z,99073.08
2019-05-19T02:20:32.132Z,99071.73
2019-05-19T02:22:50.469Z,99072.08
2019-05-19T02:25:20.364Z,99063.69
2019-05-19T02:27:50.298Z,99071.08
2019-05-19T02:30:20.453Z,99071.41
2019-05-19T02:32:50.187Z,99071.95
2019-05-19T02:35:19.723Z,99075.31
2019-05-19T02:37:49.551Z,99076.16
2019-05-19T02:40:19.459Z,99075.83
2019-05-19T02:42:50.990Z,99067.59
2019-05-19T02:45:20.701Z,99064.41
2019-05-19T02:47:50.603Z,99069.61
2019-05-19T02:50:20.605Z,99071.66
2019-05-19T02:52:51.114Z,99071.83
2019-05-19T02:55:21.036Z,99072.67
2019-05-19T02:57:51.229Z,99074.02
2019-05-19T03:00:24.261Z,99072.00
2019-05-19T03:02:53.796Z,99070.66
2019-05-19T03:05:23.619Z,99069.01
2019-05-19T03:07:53.111Z,99069.01
2019-05-19T03:10:22.756Z,99069.17
2019-05-19T03:12:52.798Z,99066.83
2019-05-19T03:15:22.548Z,99070.85
2019-05-19T03:17:52.679Z,99072.70
2019-05-19T03:20:22.422Z,99068.67
2019-05-19T03:22:51.992Z,99071.35
2019-05-19T03:25:21.618Z,99074.03
2019-05-19T03:27:51.253Z,99079.07
2019-05-19T03:30:31.445Z,99080.75
2019-05-19T03:33:02.681Z,99080.75
2019-05-19T03:35:32.137Z,99082.06
2019-05-19T03:38:01.646Z,99080.19
2019-05-19T03:40:31.849Z,99086.02
2019-05-19T03:43:01.651Z,99078.25
2019-05-19T03:45:31.467Z,99077.89
2019-05-19T03:48:02.031Z,99077.78
2019-05-19T03:50:31.577Z,99070.97
2019-05-19T03:53:01.452Z,99065.06
2019-05-19T03:55:30.912Z,99060.78
2019-05-19T03:58:00.781Z,99062.06
2019-05-19T04:00:30.466Z,99053.45
2019-05-19T04:03:00.093Z,99061.78
2019-05-19T04:05:29.755Z,99069.67
2019-05-19T04:07:59.308Z,99068.67
2019-05-19T04:10:29.137Z,99069.99
2019-05-19T04:12:58.610Z,99072.13
2019-05-19T04:15:28.109Z,99072.39
2019-05-19T04:17:57.947Z,99067.62
2019-05-19T04:20:27.483Z,99072.84
2019-05-19T04:22:56.949Z,99078.08
2019-05-19T04:25:26.503Z,99083.58
2019-05-19T04:27:56.028Z,99087.34
2019-05-19T04:30:25.572Z,99081.27
2019-05-19T04:32:55.222Z,99083.08
2019-05-19T04:35:25.266Z,99088.26
2019-05-19T04:37:54.901Z,99084.55
2019-05-19T04:40:24.366Z,99083.81
2019-05-19T04:42:53.936Z,99080.21
2019-05-19T04:45:23.810Z,99076.42
2019-05-19T04:47:53.444Z,99077.80
2019-05-19T04:50:23.112Z,99074.83
2019-05-19T04:52:52.753Z,99074.53
2019-05-19T04:55:22.228Z,99079.84
2019-05-19T04:57:51.690Z,99084.63
2019-05-19T05:00:21.439Z,99078.68
2019-05-19T05:02:51.547Z,99084.58
2019-05-19T05:05:21.384Z,99077.95
2019-05-19T05:07:51.067Z,99084.25
2019-05-19T05:10:20.564Z,99068.54
2019-05-19T05:12:50.528Z,99060.86
2019-05-19T05:15:20.016Z,99070.06
2019-05-19T05:17:49.653Z,99070.94
2019-05-19T05:20:19.432Z,99069.71
2019-05-19T05:22:48.854Z,99066.59
2019-05-19T05:25:19.522Z,99066.59
2019-05-19T05:27:49.225Z,99066.56
2019-05-19T05:30:18.979Z,99067.16
2019-05-19T05:32:48.826Z,99058.22
2019-05-19T05:35:18.517Z,99061.97
2019-05-19T05:37:48.151Z,99047.16
2019-05-19T05:40:17.832Z,99053.53
2019-05-19T05:42:47.407Z,99054.52
2019-05-19T05:45:17.068Z,99051.22
2019-05-19T05:47:46.529Z,99045.40
2019-05-19T05:50:16.576Z,99046.59
2019-05-19T05:52:46.417Z,99047.94
2019-05-19T05:55:16.170Z,99046.39
2019-05-19T05:57:45.713Z,99042.33
2019-05-19T06:00:16.131Z,99036.95
2019-05-19T06:02:45.898Z,99031.73
2019-05-19T06:05:16.930Z,99031.16
2019-05-19T06:07:46.575Z,99037.78
2019-05-19T06:10:16.435Z,99041.79
2019-05-19T06:12:45.982Z,99041.80
2019-05-19T06:15:15.604Z,99045.52
2019-05-19T06:17:45.339Z,99045.94
2019-05-19T06:20:15.271Z,99038.70
2019-05-19T06:22:55.785Z,99037.47
2019-05-19T06:25:17.134Z,99039.91
2019-05-19T06:27:46.669Z,99031.39
2019-05-19T06:30:17.019Z,99033.06
2019-05-19T06:32:48.473Z,99040.70
2019-05-19T06:35:18.261Z,99037.65
2019-05-19T06:37:47.896Z,99039.16
2019-05-19T06:40:17.799Z,99041.55
2019-05-19T06:42:47.476Z,99034.16
2019-05-19T06:45:17.387Z,99038.33
2019-05-19T06:47:47.318Z,99039.96
2019-05-19T06:50:17.680Z,99036.96
2019-05-19T06:52:47.312Z,99038.00
2019-05-19T06:55:16.936Z,99030.92
2019-05-19T06:57:47.092Z,99028.62
2019-05-19T07:00:18.624Z,99034.16
2019-05-19T07:02:48.365Z,99024.59
2019-05-19T07:05:18.952Z,99025.08
2019-05-19T07:07:48.483Z,99024.33
2019-05-19T07:10:18.517Z,99032.69
2019-05-19T07:12:47.968Z,99034.11
2019-05-19T07:15:17.654Z,99023.20
2019-05-19T07:17:47.270Z,99022.47
2019-05-19T07:20:16.762Z,99027.77
2019-05-19T07:22:46.805Z,99024.66
2019-05-19T07:25:16.748Z,99023.61
2019-05-19T07:27:46.817Z,99021.33
2019-05-19T07:30:16.517Z,99013.36
2019-05-19T07:32:46.233Z,99005.22
2019-05-19T07:35:16.042Z,99011.45
2019-05-19T07:37:45.620Z,99008.81
2019-05-19T07:40:15.242Z,99004.28
2019-05-19T07:42:44.963Z,98996.98
2019-05-19T07:45:14.670Z,99005.00
2019-05-19T07:47:44.312Z,99003.01
2019-05-19T07:50:14.123Z,99004.98
2019-05-19T07:52:47.195Z,99008.09
2019-05-19T07:55:17.328Z,99004.13
2019-05-19T07:57:46.809Z,99000.00
2019-05-19T08:00:16.357Z,99005.78
2019-05-19T08:02:46.014Z,99010.78
2019-05-19T08:05:16.170Z,98998.86
2019-05-19T08:07:46.120Z,98985.05
2019-05-19T08:10:15.734Z,98983.00
2019-05-19T08:12:45.407Z,98975.09
2019-05-19T08:15:15.042Z,98986.98
2019-05-19T08:17:44.714Z,98991.79
2019-05-19T08:20:14.889Z,98997.95
2019-05-19T08:22:44.831Z,98979.08
2019-05-19T08:25:14.749Z,98968.41
2019-05-19T08:27:44.389Z,98963.06
2019-05-19T08:30:14.207Z,98964.31
2019-05-19T08:32:43.864Z,98969.00
2019-05-19T08:35:13.318Z,98967.98
2019-05-19T08:37:43.372Z,98967.73
2019-05-19T08:40:13.164Z,98961.51
2019-05-19T08:42:42.651Z,98963.19
2019-05-19T08:45:13.384Z,98962.03
2019-05-19T08:47:43.107Z,98966.68
2019-05-19T08:50:12.736Z,98960.75
2019-05-19T08:52:42.720Z,98968.78
2019-05-19T08:55:12.456Z,98959.64
2019-05-19T08:57:42.001Z,98953.98
2019-05-19T09:00:11.627Z,98957.95
2019-05-19T09:02:41.601Z,98949.33
2019-05-19T09:05:11.303Z,98950.94
2019-05-19T09:07:40.780Z,98963.37
2019-05-19T09:10:10.514Z,98951.86
2019-05-19T09:12:40.505Z,98954.52
2019-05-19T09:15:10.342Z,98944.64
2019-05-19T09:17:40.034Z,98955.10
2019-05-19T09:20:10.302Z,98950.37
2019-05-19T09:22:39.840Z,98943.02
2019-05-19T09:25:09.815Z,98943.11
2019-05-19T09:27:39.868Z,98939.05
2019-05-19T09:30:10.757Z,98935.61
2019-05-19T09:32:41.078Z,98933.02
2019-05-19T09:35:10.914Z,98939.42
2019-05-19T09:37:41.380Z,98930.45
2019-05-19T09:40:11.349Z,98927.16
2019-05-19T09:42:41.427Z,98932.35
2019-05-19T09:45:11.060Z,98937.20
2019-05-19T09:47:40.874Z,98930.00
2019-05-19T09:50:10.486Z,98934.47
2019-05-19T09:52:40.289Z,98929.94
2019-05-19T09:55:10.976Z,98926.71
2019-05-19T09:57:40.540Z,98922.94
2019-05-19T10:00:12.509Z,98921.58
2019-05-19T10:02:42.199Z,98924.53
2019-05-19T10:05:12.107Z,98917.50
2019-05-19T10:07:41.596Z,98917.23
2019-05-19T10:10:14.444Z,98924.84
2019-05-19T10:12:43.908Z,98915.16
2019-05-19T10:15:14.047Z,98914.77
2019-05-19T10:17:43.571Z,98909.81
2019-05-19T10:20:14.560Z,98914.25
2019-05-19T10:22:45.420Z,98924.13
2019-05-19T10:25:23.209Z,98913.46
2019-05-19T10:27:46.364Z,98905.63
2019-05-19T10:30:15.983Z,98917.27
2019-05-19T10:32:45.900Z,98910.14
2019-05-19T10:35:15.460Z,98917.44
2019-05-19T10:37:45.234Z,98912.48
2019-05-19T10:40:15.501Z,98902.66
2019-05-19T10:42:45.252Z,98894.28
2019-05-19T10:45:14.973Z,98900.80
2019-05-19T10:47:44.453Z,98894.73
2019-05-19T10:50:14.326Z,98897.08
2019-05-19T10:52:44.213Z,98891.20
2019-05-19T10:55:13.843Z,98910.08
2019-05-19T10:57:43.479Z,98892.09
2019-05-19T11:00:13.833Z,98900.30
2019-05-19T11:02:43.682Z,98897.91
2019-05-19T11:05:13.483Z,98882.77
2019-05-19T11:07:42.938Z,98897.42
2019-05-19T11:10:12.541Z,98888.87
2019-05-19T11:12:41.982Z,98903.11
2019-05-19T11:15:12.143Z,98896.55
2019-05-19T11:17:41.846Z,98894.84
2019-05-19T11:20:11.946Z,98896.97
2019-05-19T11:22:41.578Z,98894.20
2019-05-19T11:25:11.180Z,98890.53
2019-05-19T11:27:40.619Z,98891.83
2019-05-19T11:30:12.033Z,98880.79
2019-05-19T11:32:41.713Z,98877.92
2019-05-19T11:35:11.323Z,98878.89
2019-05-19T11:37:41.444Z,98885.34
2019-05-19T11:40:11.562Z,98871.77
2019-05-19T11:42:41.361Z,98873.24
2019-05-19T11:45:10.914Z,98867.14
2019-05-19T11:47:40.374Z,98873.66
2019-05-19T11:50:09.925Z,98877.44
2019-05-19T11:52:39.542Z,98859.45
2019-05-19T11:55:09.211Z,98859.02
2019-05-19T11:57:38.770Z,98866.03
2019-05-19T12:00:09.318Z,98852.59
2019-05-19T12:02:39.003Z,98858.33
2019-05-19T12:05:08.805Z,98855.50
2019-05-19T12:07:38.874Z,98858.00
2019-05-19T12:10:09.051Z,98846.40
2019-05-19T12:12:38.601Z,98854.22
2019-05-19T12:15:08.899Z,98854.06
2019-05-19T12:17:38.878Z,98842.52
2019-05-19T12:20:08.569Z,98840.88
2019-05-19T12:22:38.138Z,98856.96
2019-05-19T12:25:08.453Z,98861.09
2019-05-19T12:27:38.187Z,98860.08
2019-05-19T12:30:09.708Z,98856.84
2019-05-19T12:32:39.417Z,98851.84
2019-05-19T12:35:09.133Z,98853.52
2019-05-19T12:37:39.075Z,98850.05
2019-05-19T12:40:09.243Z,98853.29
2019-05-19T12:42:38.762Z,98841.72
2019-05-19T12:45:08.936Z,98854.92
2019-05-19T12:47:38.372Z,98842.55
2019-05-19T12:50:08.436Z,98844.14
2019-05-19T12:52:37.895Z,98829.69
2019-05-19T12:55:07.561Z,98832.55
2019-05-19T12:57:37.576Z,98834.23
2019-05-19T13:00:07.890Z,98826.41
2019-05-19T13:02:38.316Z,98822.55
2019-05-19T13:05:08.797Z,98829.02
2019-05-19T13:07:38.920Z,98824.23
2019-05-19T13:10:08.714Z,98818.72
2019-05-19T13:12:38.172Z,98824.20
2019-05-19T13:15:08.284Z,98822.78
2019-05-19T13:17:37.782Z,98823.27
2019-05-19T13:20:07.399Z,98831.45
2019-05-19T13:22:36.931Z,98826.07
2019-05-19T13:25:06.797Z,98821.21
2019-05-19T13:27:36.293Z,98819.30
2019-05-19T13:30:09.112Z,98815.87
2019-05-19T13:32:38.772Z,98816.77
2019-05-19T13:35:08.885Z,98814.69
2019-05-19T13:37:39.174Z,98812.30
2019-05-19T13:40:08.769Z,98809.69
2019-05-19T13:42:38.392Z,98814.86
2019-05-19T13:45:08.127Z,98803.09
2019-05-19T13:47:37.987Z,98810.69
2019-05-19T13:50:08.065Z,98811.97
2019-05-19T13:52:37.701Z,98805.27
2019-05-19T13:55:08.584Z,98804.39
2019-05-19T13:57:38.153Z,98808.22
2019-05-19T14:00:08.248Z,98805.37
2019-05-19T14:02:38.105Z,98800.59
2019-05-19T14:05:07.744Z,98788.53
2019-05-19T14:07:37.241Z,98791.47
2019-05-19T14:10:07.242Z,98782.84
2019-05-19T14:12:36.713Z,98782.21
2019-05-19T14:15:08.285Z,98779.30
2019-05-19T14:17:38.041Z,98775.67
2019-05-19T14:20:08.514Z,98769.61
2019-05-19T14:22:38.241Z,98777.91
2019-05-19T14:25:08.442Z,98765.23
2019-05-19T14:27:38.464Z,98771.27
2019-05-19T14:30:09.755Z,98769.62
2019-05-19T14:32:39.208Z,98760.58
2019-05-19T14:35:08.881Z,98760.36
2019-05-19T14:37:38.590Z,98761.16
2019-05-19T14:40:10.002Z,98760.21
2019-05-19T14:42:56.519Z,98762.30
2019-05-19T14:45:25.972Z,98762.44
2019-05-19T14:47:55.502Z,98774.33
2019-05-19T14:50:25.045Z,98770.39
2019-05-19T14:52:55.178Z,98769.44
2019-05-19T14:55:25.080Z,98776.89
2019-05-19T14:57:54.680Z,98771.97
2019-05-19T15:00:24.661Z,98763.04
2019-05-19T15:02:54.118Z,98760.88
2019-05-19T15:05:23.996Z,98752.38
2019-05-19T15:07:53.572Z,98758.31
2019-05-19T15:10:23.874Z,98751.91
2019-05-19T15:12:53.768Z,98752.97
2019-05-19T15:15:25.422Z,98757.48
2019-05-19T15:17:54.888Z,98746.23
2019-05-19T15:20:24.716Z,98746.79
2019-05-19T15:22:54.280Z,98747.31
2019-05-19T15:25:24.108Z,98736.37
2019-05-19T15:28:00.242Z,98733.77
2019-05-19T15:30:25.073Z,98725.01
2019-05-19T15:32:54.595Z,98725.96
2019-05-19T15:35:24.101Z,98725.63
2019-05-19T15:37:53.661Z,98723.11
2019-05-19T15:40:23.146Z,98724.08
2019-05-19T15:42:52.692Z,98722.45
2019-05-19T15:45:22.428Z,98714.66
2019-05-19T15:47:51.998Z,98710.30
2019-05-19T15:50:21.621Z,98717.61
2019-05-19T15:52:51.106Z,98717.78
2019-05-19T15:55:20.641Z,98716.19
2019-05-19T15:57:50.205Z,98715.06
2019-05-19T16:00:21.940Z,98717.00
2019-05-19T16:02:51.885Z,98720.25
2019-05-19T16:05:21.701Z,98717.25
2019-05-19T16:07:51.203Z,98711.26
2019-05-19T16:10:21.077Z,98717.69
2019-05-19T16:12:51.021Z,98711.41
2019-05-19T16:15:21.100Z,98711.70
2019-05-19T16:17:50.732Z,98710.35
2019-05-19T16:20:20.279Z,98711.82
2019-05-19T16:22:49.816Z,98710.56
2019-05-19T16:25:19.346Z,98707.47
2019-05-19T16:27:49.255Z,98709.14
2019-05-19T16:30:19.179Z,98704.56
2019-05-19T16:32:48.797Z,98711.55
2019-05-19T16:35:18.369Z,98708.91
2019-05-19T16:37:48.112Z,98700.77
2019-05-19T16:40:18.474Z,98705.11
2019-05-19T16:42:47.915Z,98702.47
2019-05-19T16:45:17.628Z,98698.31
2019-05-19T16:47:47.558Z,98702.67
2019-05-19T16:50:17.629Z,98704.16
2019-05-19T16:52:47.646Z,98701.45
2019-05-19T16:55:21.722Z,98705.70
2019-05-19T16:57:51.265Z,98710.33
2019-05-19T17:00:21.117Z,98707.22
2019-05-19T17:02:50.636Z,98710.39
2019-05-19T17:05:20.539Z,98712.73
2019-05-19T17:07:50.460Z,98711.75
2019-05-19T17:10:20.001Z,98713.22
2019-05-19T17:12:49.577Z,98708.42
2019-05-19T17:15:19.829Z,98704.16
2019-05-19T17:17:49.331Z,98706.48
2019-05-19T17:20:20.496Z,98702.73
2019-05-19T17:22:50.134Z,98700.05
2019-05-19T17:25:19.671Z,98706.69
2019-05-19T17:27:49.460Z,98705.37
2019-05-19T17:30:21.055Z,98710.06
2019-05-19T17:32:50.491Z,98707.91
2019-05-19T17:35:20.351Z,98707.38
2019-05-19T17:37:50.084Z,98708.75
2019-05-19T17:40:20.472Z,98708.77
2019-05-19T17:42:49.915Z,98717.02
2019-05-19T17:45:19.393Z,98720.28
2019-05-19T17:47:48.917Z,98717.80
2019-05-19T17:50:33.123Z,98717.45
2019-05-19T17:53:03.529Z,98720.96
2019-05-19T17:55:35.157Z,98724.47
2019-05-19T17:58:04.948Z,98727.67
2019-05-19T18:00:39.230Z,98727.05
2019-05-19T18:03:09.369Z,98717.66
2019-05-19T18:05:38.929Z,98718.69
2019-05-19T18:08:08.514Z,98715.77
2019-05-19T18:10:38.076Z,98719.00
2019-05-19T18:13:07.502Z,98718.89
2019-05-19T18:15:37.361Z,98716.29
2019-05-19T18:18:06.816Z,98719.73
2019-05-19T18:20:36.419Z,98713.80
2019-05-19T18:23:05.954Z,98717.19
2019-05-19T18:25:35.452Z,98714.88
2019-05-19T18:28:05.263Z,98720.47
2019-05-19T18:30:35.718Z,98724.41
2019-05-19T18:33:05.180Z,98721.78
2019-05-19T18:35:34.812Z,98725.19
2019-05-19T18:38:04.519Z,98723.06
2019-05-19T18:40:34.183Z,98727.05
2019-05-19T18:43:04.454Z,98724.36
2019-05-19T18:45:34.309Z,98730.02
2019-05-19T18:48:03.810Z,98726.05
2019-05-19T18:50:33.336Z,98734.36
2019-05-19T18:53:02.801Z,98733.72
2019-05-19T18:55:32.345Z,98741.44
2019-05-19T18:58:03.946Z,98738.52
2019-05-19T19:00:36.029Z,98736.48
2019-05-19T19:03:06.795Z,98736.56
2019-05-19T19:05:37.080Z,98740.80
2019-05-19T19:08:06.693Z,98743.09
2019-05-19T19:10:36.803Z,98748.31
2019-05-19T19:13:06.374Z,98746.66
2019-05-19T19:15:35.849Z,98746.84
2019-05-19T19:18:05.378Z,98755.80
2019-05-19T19:20:35.662Z,98749.16
2019-05-19T19:23:05.193Z,98749.10
2019-05-19T19:25:35.273Z,98751.14
2019-05-19T19:28:05.096Z,98747.47
2019-05-19T19:30:34.570Z,98751.92
2019-05-19T19:33:04.032Z,98750.73
2019-05-19T19:35:39.151Z,98748.08
2019-05-19T19:38:04.687Z,98754.73
2019-05-19T19:40:34.262Z,98744.66
2019-05-19T19:43:03.741Z,98752.22
2019-05-19T19:45:33.207Z,98742.73
2019-05-19T19:48:02.753Z,98749.34
2019-05-19T19:50:33.312Z,98749.99
2019-05-19T19:53:03.284Z,98753.54
2019-05-19T19:55:32.728Z,98750.95
2019-05-19T19:58:02.249Z,98753.08
2019-05-19T20:00:38.063Z,98750.00
2019-05-19T20:03:08.241Z,98755.02
2019-05-19T20:05:38.150Z,98753.53
2019-05-19T20:08:07.828Z,98753.56
2019-05-19T20:10:37.659Z,98762.73
2019-05-19T20:13:07.487Z,98756.16
2019-05-19T20:15:37.890Z,98752.44
2019-05-19T20:18:07.323Z,98753.00
2019-05-19T20:20:36.776Z,98749.77
2019-05-19T20:23:06.296Z,98751.72
2019-05-19T20:25:37.321Z,98750.48
2019-05-19T20:28:07.250Z,98749.45
2019-05-19T20:30:37.133Z,98753.24
2019-05-19T20:33:06.804Z,98751.16
2019-05-19T20:35:36.433Z,98749.87
2019-05-19T20:38:06.431Z,98746.77
2019-05-19T20:40:35.917Z,98742.49
2019-05-19T20:43:05.445Z,98746.33
2019-05-19T20:45:34.975Z,98743.94
2019-05-19T20:48:04.496Z,98737.81
2019-05-19T20:50:34.111Z,98742.25
2019-05-19T20:53:03.746Z,98748.14
2019-05-19T20:55:33.554Z,98743.59
2019-05-19T20:58:03.263Z,98751.45
2019-05-19T21:00:32.887Z,98745.54
2019-05-19T21:03:02.537Z,98742.96
2019-05-19T21:05:32.192Z,98742.87
2019-05-19T21:08:01.892Z,98739.28
2019-05-19T21:10:31.399Z,98742.54
2019-05-19T21:13:01.366Z,98736.98
2019-05-19T21:15:31.096Z,98734.48
2019-05-19T21:18:00.744Z,98734.31
2019-05-19T21:20:30.363Z,98725.11
2019-05-19T21:23:00.029Z,98724.50
2019-05-19T21:25:29.499Z,98735.58
2019-05-19T21:27:59.139Z,98733.03
2019-05-19T21:30:29.274Z,98735.56
2019-05-19T21:32:58.725Z,98738.41
2019-05-19T21:35:28.250Z,98731.14
2019-05-19T21:37:57.794Z,98734.14
2019-05-19T21:40:27.253Z,98734.45
2019-05-19T21:42:56.726Z,98730.30
2019-05-19T21:45:26.260Z,98730.30
2019-05-19T21:47:55.739Z,98730.83
2019-05-19T21:50:25.195Z,98729.17
2019-05-19T21:52:54.651Z,98737.90
2019-05-19T21:55:24.455Z,98741.17
2019-05-19T21:57:54.090Z,98734.64
2019-05-19T22:02:53.656Z,98740.09
2019-05-19T22:05:23.121Z,98739.09
2019-05-19T22:08:00.595Z,98742.44
2019-05-19T22:10:30.051Z,98747.81
2019-05-19T22:12:59.538Z,98752.31
2019-05-19T22:15:28.991Z,98749.39
2019-05-19T22:17:58.840Z,98748.04
2019-05-19T22:20:28.577Z,98751.80
2019-05-19T22:22:58.025Z,98754.71
2019-05-19T22:25:27.479Z,98751.69
2019-05-19T22:27:57.743Z,98751.98
2019-05-19T22:30:27.197Z,98759.50
2019-05-19T22:32:56.945Z,98767.33
2019-05-19T22:35:26.418Z,98769.62
2019-05-19T22:37:56.416Z,98772.86
2019-05-19T22:40:25.902Z,98765.66
2019-05-19T22:42:55.364Z,98759.63
2019-05-19T22:45:24.974Z,98748.99
2019-05-19T22:47:54.537Z,98742.73
2019-05-19T22:50:24.054Z,98744.30
2019-05-19T22:52:53.590Z,98739.81
2019-05-19T22:55:23.039Z,98743.05
2019-05-19T22:57:52.530Z,98743.20
2019-05-19T23:00:22.252Z,98754.05
2019-05-19T23:02:51.928Z,98753.21
2019-05-19T23:05:21.403Z,98758.01
2019-05-19T23:07:51.029Z,98760.20
2019-05-19T23:10:22.054Z,98763.00
2019-05-19T23:12:51.679Z,98762.38
2019-05-19T23:15:21.439Z,98767.38
2019-05-19T23:17:50.898Z,98769.16
2019-05-19T23:20:20.651Z,98777.48
2019-05-19T23:22:50.388Z,98770.52
2019-05-19T23:25:19.862Z,98774.47
2019-05-19T23:27:49.316Z,98779.99
2019-05-19T23:30:19.715Z,98771.55
2019-05-19T23:32:49.162Z,98770.88
2019-05-19T23:35:18.674Z,98778.14
2019-05-19T23:37:48.637Z,98778.66
2019-05-19T23:40:18.259Z,98785.29
2019-05-19T23:42:47.736Z,98790.29
2019-05-19T23:45:17.562Z,98786.73
2019-05-19T23:47:47.030Z,98789.33
2019-05-19T23:50:16.711Z,98789.42
2019-05-19T23:52:46.437Z,98784.91
2019-05-19T23:55:16.229Z,98778.97
2019-05-19T23:57:45.743Z,98776.88
